Time;durP1;ratioP1;P1;durP2;ratioP2;P2;SDS_P1;SDS_P2;PMS_P1;PMS_P2;Temp;Humidity;BMP_temperature;BMP_pressure;BME280_temperature;BME280_humidity;BME280_pressure;Samples;Min_cycle;Max_cycle;Signal;HPM_P1;HPM_P2
2023/07/12 00:01:50;;;;;;;3.65;3.10;;;;;;;;;;6337750;28;20262;-69
2023/07/12 00:04:55;;;;;;;3.72;3.63;;;;;;;;;;6337508;28;20238;-70
2023/07/12 00:07:59;;;;;;;3.70;3.40;;;;;;;;;;6337255;28;20246;-70
2023/07/12 00:11:04;;;;;;;7.97;3.30;;;;;;;;;;6337601;28;20254;-69
2023/07/12 00:14:08;;;;;;;4.15;3.40;;;;;;;;;;6337619;28;20514;-71
2023/07/12 00:17:15;;;;;;;3.40;3.10;;;;;;;;;;6337482;28;20285;-70
2023/07/12 00:20:23;;;;;;;5.60;3.15;;;;;;;;;;6336898;28;20265;-70
2023/07/12 00:23:27;;;;;;;2.85;2.85;;;;;;;;;;6337375;28;20235;-71
2023/07/12 00:26:34;;;;;;;3.83;3.10;;;;;;;;;;6337907;28;20238;-70
2023/07/12 00:29:38;;;;;;;3.20;3.10;;;;;;;;;;6337299;28;20234;-70
2023/07/12 00:32:44;;;;;;;3.35;3.25;;;;;;;;;;6337214;28;20285;-69
2023/07/12 00:35:49;;;;;;;2.97;2.88;;;;;;;;;;6336507;28;20405;-69
2023/07/12 00:38:55;;;;;;;3.67;3.38;;;;;;;;;;6336569;28;20535;-69
2023/07/12 00:42:05;;;;;;;3.10;2.90;;;;;;;;;;6336763;28;20262;-70
2023/07/12 00:45:12;;;;;;;3.20;3.10;;;;;;;;;;6335457;28;20270;-71
2023/07/12 00:48:19;;;;;;;3.08;3.08;;;;;;;;;;6335216;28;20270;-71
2023/07/12 00:51:39;;;;;;;3.38;3.22;;;;;;;;;;6336100;28;20242;-70
2023/07/12 00:54:53;;;;;;;3.30;3.20;;;;;;;;;;6335503;28;20270;-70
2023/07/12 00:57:58;;;;;;;3.67;3.38;;;;;;;;;;6336503;28;20239;-69
2023/07/12 01:01:03;;;;;;;4.40;3.30;;;;;;;;;;6336174;28;20262;-68
2023/07/12 01:04:10;;;;;;;7.22;3.03;;;;;;;;;;6336395;28;20259;-70
2023/07/12 01:07:16;;;;;;;4.20;3.10;;;;;;;;;;6335037;28;20259;-70
2023/07/12 01:10:20;;;;;;;2.97;2.88;;;;;;;;;;6334848;28;20269;-69
2023/07/12 01:13:26;;;;;;;5.32;3.05;;;;;;;;;;6335138;28;20270;-70
2023/07/12 01:16:30;;;;;;;3.70;3.10;;;;;;;;;;6334798;28;20459;-69
2023/07/12 01:19:39;;;;;;;3.53;3.30;;;;;;;;;;6335828;28;20230;-69
2023/07/12 01:22:45;;;;;;;3.20;3.00;;;;;;;;;;6337191;28;20266;-69
2023/07/12 01:25:49;;;;;;;3.28;2.90;;;;;;;;;;6336932;28;20242;-69
2023/07/12 01:28:59;;;;;;;3.35;3.25;;;;;;;;;;6336775;28;20395;-68
2023/07/12 01:32:04;;;;;;;3.90;3.08;;;;;;;;;;6335181;28;20560;-70
2023/07/12 01:35:09;;;;;;;5.38;3.95;;;;;;;;;;6336497;28;20234;-70
2023/07/12 01:38:15;;;;;;;4.15;3.22;;;;;;;;;;6336192;28;20238;-70
2023/07/12 01:41:20;;;;;;;3.33;3.17;;;;;;;;;;6335702;28;20262;-68
2023/07/12 01:44:24;;;;;;;3.92;3.72;;;;;;;;;;6335567;28;20535;-70
2023/07/12 01:47:28;;;;;;;3.67;3.05;;;;;;;;;;6334502;28;20277;-70
2023/07/12 01:50:33;;;;;;;7.90;3.47;;;;;;;;;;6335564;28;20467;-70
2023/07/12 01:53:40;;;;;;;3.13;3.03;;;;;;;;;;6335658;28;20265;-69
2023/07/12 01:56:45;;;;;;;3.72;3.42;;;;;;;;;;6335639;28;20234;-70
2023/07/12 01:59:50;;;;;;;3.17;2.97;;;;;;;;;;6334562;28;20466;-69
2023/07/12 02:02:54;;;;;;;3.55;3.45;;;;;;;;;;6340495;28;20258;-70
2023/07/12 02:05:59;;;;;;;3.97;3.55;;;;;;;;;;6339518;28;20432;-70
2023/07/12 02:09:05;;;;;;;3.55;3.25;;;;;;;;;;6339831;28;20261;-71
2023/07/12 02:12:10;;;;;;;4.40;3.17;;;;;;;;;;6339236;28;20574;-70
2023/07/12 02:15:15;;;;;;;3.30;3.20;;;;;;;;;;6340802;28;20262;-69
2023/07/12 02:18:20;;;;;;;4.20;3.50;;;;;;;;;;6340242;28;20254;-70
2023/07/12 02:21:25;;;;;;;5.90;3.33;;;;;;;;;;6340217;28;20257;-70
2023/07/12 02:24:31;;;;;;;3.50;3.13;;;;;;;;;;6339874;28;20238;-69
2023/07/12 02:27:35;;;;;;;3.50;3.20;;;;;;;;;;6338824;28;20270;-71
2023/07/12 02:30:42;;;;;;;3.63;3.05;;;;;;;;;;6338208;28;20309;-70
2023/07/12 02:33:47;;;;;;;3.30;2.97;;;;;;;;;;6338586;28;20273;-69
2023/07/12 02:36:51;;;;;;;3.35;3.03;;;;;;;;;;6338457;28;20265;-69
2023/07/12 02:39:57;;;;;;;4.30;3.25;;;;;;;;;;6339567;28;20242;-70
2023/07/12 02:43:02;;;;;;;3.83;2.95;;;;;;;;;;6339810;28;20266;-69
2023/07/12 02:46:06;;;;;;;3.95;3.33;;;;;;;;;;6339740;28;20234;-68
2023/07/12 02:49:11;;;;;;;3.35;3.25;;;;;;;;;;6339438;28;20238;-69
2023/07/12 02:52:15;;;;;;;3.97;3.15;;;;;;;;;;6339209;28;20242;-70
2023/07/12 02:55:22;;;;;;;3.58;3.30;;;;;;;;;;6339492;28;20250;-70
2023/07/12 02:58:26;;;;;;;3.58;3.28;;;;;;;;;;6339019;28;20250;-71
2023/07/12 03:01:31;;;;;;;3.90;3.45;;;;;;;;;;6337868;28;20269;-70
2023/07/12 03:04:36;;;;;;;4.95;3.20;;;;;;;;;;6339367;28;20238;-69
2023/07/12 03:07:41;;;;;;;4.00;3.67;;;;;;;;;;6338752;28;20246;-70
2023/07/12 03:10:47;;;;;;;3.65;3.50;;;;;;;;;;6338889;28;20235;-69
2023/07/12 03:13:52;;;;;;;3.42;3.30;;;;;;;;;;6338002;28;20239;-70
2023/07/12 03:16:56;;;;;;;3.70;3.00;;;;;;;;;;6338841;28;20492;-69
2023/07/12 03:20:01;;;;;;;3.10;3.00;;;;;;;;;;6338863;28;20246;-70
2023/07/12 03:23:06;;;;;;;3.95;3.17;;;;;;;;;;6338708;28;20258;-70
2023/07/12 03:26:12;;;;;;;3.35;3.08;;;;;;;;;;6337291;28;20265;-69
2023/07/12 03:29:17;;;;;;;3.55;3.30;;;;;;;;;;6338239;28;20254;-69
2023/07/12 03:32:21;;;;;;;12.95;3.42;;;;;;;;;;6337961;28;20313;-70
2023/07/12 03:35:27;;;;;;;3.50;3.30;;;;;;;;;;6338234;28;20234;-70
2023/07/12 03:38:32;;;;;;;4.35;3.20;;;;;;;;;;6338002;28;20242;-69
2023/07/12 03:41:38;;;;;;;4.43;3.45;;;;;;;;;;6337962;28;20242;-70
2023/07/12 03:44:43;;;;;;;3.35;3.10;;;;;;;;;;6338245;28;20262;-70
2023/07/12 03:47:47;;;;;;;2.83;2.72;;;;;;;;;;6337595;28;20242;-69
2023/07/12 03:50:55;;;;;;;4.85;3.25;;;;;;;;;;6337722;28;20260;-69
2023/07/12 03:54:00;;;;;;;2.95;2.85;;;;;;;;;;6338074;28;20238;-69
2023/07/12 03:57:06;;;;;;;4.22;3.22;;;;;;;;;;6337790;28;20246;-69
2023/07/12 04:00:13;;;;;;;2.90;2.80;;;;;;;;;;6337888;28;20234;-70
2023/07/12 04:03:18;;;;;;;2.80;2.70;;;;;;;;;;6346327;28;20282;-70
2023/07/12 04:06:23;;;;;;;2.88;2.70;;;;;;;;;;6338076;28;20258;-69
2023/07/12 04:09:27;;;;;;;2.60;2.60;;;;;;;;;;6337228;28;20246;-70
2023/07/12 04:12:35;;;;;;;3.85;3.10;;;;;;;;;;6337511;28;20238;-70
2023/07/12 04:15:40;;;;;;;4.35;2.60;;;;;;;;;;6337595;28;20242;-70
2023/07/12 04:18:44;;;;;;;5.00;2.70;;;;;;;;;;6337335;28;20428;-70
2023/07/12 04:21:49;;;;;;;3.33;2.60;;;;;;;;;;6337047;28;20238;-70
2023/07/12 04:24:54;;;;;;;4.25;2.70;;;;;;;;;;6336958;28;20511;-69
2023/07/12 04:28:00;;;;;;;3.53;2.95;;;;;;;;;;6336790;28;20410;-70
2023/07/12 04:31:05;;;;;;;2.70;2.53;;;;;;;;;;6336369;28;20590;-70
2023/07/12 04:34:11;;;;;;;2.90;2.80;;;;;;;;;;6335914;28;20269;-69
2023/07/12 04:37:20;;;;;;;2.38;2.35;;;;;;;;;;6336571;28;20433;-70
2023/07/12 04:40:25;;;;;;;2.90;2.50;;;;;;;;;;6336853;28;20238;-69
2023/07/12 04:43:31;;;;;;;2.72;2.63;;;;;;;;;;6337904;28;20257;-70
2023/07/12 04:46:36;;;;;;;2.85;2.63;;;;;;;;;;6336408;28;20235;-71
2023/07/12 04:49:41;;;;;;;4.90;3.22;;;;;;;;;;6336864;28;20373;-70
2023/07/12 04:52:45;;;;;;;3.13;2.92;;;;;;;;;;6336654;28;20530;-70
2023/07/12 04:55:52;;;;;;;4.57;2.97;;;;;;;;;;6336411;28;20234;-70
2023/07/12 04:58:58;;;;;;;3.72;3.20;;;;;;;;;;6336055;28;20250;-69
2023/07/12 05:02:03;;;;;;;3.83;3.40;;;;;;;;;;6335920;28;20234;-69
2023/07/12 05:05:08;;;;;;;3.78;2.88;;;;;;;;;;6335800;28;20267;-71
2023/07/12 05:08:13;;;;;;;8.05;3.03;;;;;;;;;;6335777;28;20455;-69
2023/07/12 05:11:17;;;;;;;3.75;3.10;;;;;;;;;;6335938;28;20246;-70
2023/07/12 05:14:23;;;;;;;3.40;3.08;;;;;;;;;;6335871;28;20386;-70
2023/07/12 05:17:29;;;;;;;3.13;2.83;;;;;;;;;;6335712;28;20242;-70
2023/07/12 05:20:34;;;;;;;5.63;2.88;;;;;;;;;;6335686;28;20235;-71
2023/07/12 05:23:39;;;;;;;3.20;2.92;;;;;;;;;;6336093;28;20269;-70
2023/07/12 05:26:44;;;;;;;4.60;2.75;;;;;;;;;;6335734;28;20297;-70
2023/07/12 05:29:50;;;;;;;3.13;2.60;;;;;;;;;;6335798;28;20246;-70
2023/07/12 05:32:55;;;;;;;5.75;2.90;;;;;;;;;;6335214;28;20282;-70
2023/07/12 05:36:01;;;;;;;4.70;2.72;;;;;;;;;;6333068;28;20345;-69
2023/07/12 05:39:06;;;;;;;3.63;2.42;;;;;;;;;;6335327;28;20411;-70
2023/07/12 05:42:10;;;;;;;3.53;2.67;;;;;;;;;;6335362;28;20238;-70
2023/07/12 05:45:16;;;;;;;2.55;2.38;;;;;;;;;;6335234;28;20266;-71
2023/07/12 05:48:21;;;;;;;2.33;2.22;;;;;;;;;;6335219;28;20271;-69
2023/07/12 05:51:25;;;;;;;4.88;2.42;;;;;;;;;;6335230;28;20290;-70
2023/07/12 05:54:31;;;;;;;3.83;2.67;;;;;;;;;;6335372;28;20250;-70
2023/07/12 05:57:36;;;;;;;2.72;2.58;;;;;;;;;;6335509;28;20254;-70
2023/07/12 06:00:42;;;;;;;5.72;2.65;;;;;;;;;;6335182;28;20238;-69
2023/07/12 06:03:47;;;;;;;2.60;2.25;;;;;;;;;;6335409;28;20546;-69
2023/07/12 06:06:52;;;;;;;2.92;2.80;;;;;;;;;;6335079;28;20235;-70
2023/07/12 06:09:57;;;;;;;2.92;2.78;;;;;;;;;;6334257;28;20269;-72
2023/07/12 06:13:02;;;;;;;5.07;2.97;;;;;;;;;;6335291;28;20238;-70
2023/07/12 06:16:08;;;;;;;2.78;2.58;;;;;;;;;;6334660;28;20238;-70
2023/07/12 06:19:13;;;;;;;6.95;2.50;;;;;;;;;;6335161;28;20515;-70
2023/07/12 06:22:17;;;;;;;2.95;2.70;;;;;;;;;;6335010;28;20247;-70
2023/07/12 06:25:22;;;;;;;4.43;2.60;;;;;;;;;;6334975;28;20262;-69
2023/07/12 06:28:26;;;;;;;3.55;3.00;;;;;;;;;;6334492;28;20330;-69
2023/07/12 06:31:33;;;;;;;5.18;3.15;;;;;;;;;;6334956;28;20298;-69
2023/07/12 06:37:24;;;;;;;4.13;2.75;;;;;;;;;;6332061;27;20590;-70
2023/07/12 06:40:28;;;;;;;5.55;2.55;;;;;;;;;;6327747;27;131721;-70
2023/07/12 06:43:32;;;;;;;3.22;2.85;;;;;;;;;;6346823;27;20504;-70
2023/07/12 06:46:37;;;;;;;3.80;2.92;;;;;;;;;;6331531;28;20238;-70
2023/07/12 06:49:41;;;;;;;2.95;2.72;;;;;;;;;;6331021;28;20265;-70
2023/07/12 06:52:46;;;;;;;5.68;3.30;;;;;;;;;;6331738;28;20238;-69
2023/07/12 06:55:50;;;;;;;3.28;2.95;;;;;;;;;;6331199;28;20266;-69
2023/07/12 06:58:55;;;;;;;2.60;2.55;;;;;;;;;;6364527;28;20274;-70
2023/07/12 07:01:59;;;;;;;6.15;3.05;;;;;;;;;;6331030;28;20551;-69
2023/07/12 07:05:04;;;;;;;2.90;2.70;;;;;;;;;;6332792;28;20246;-69
2023/07/12 07:08:10;;;;;;;2.75;2.50;;;;;;;;;;6331320;28;20250;-69
2023/07/12 07:11:15;;;;;;;4.63;2.60;;;;;;;;;;6331477;28;20238;-69
2023/07/12 07:14:19;;;;;;;2.58;2.47;;;;;;;;;;6331314;28;20254;-68
2023/07/12 07:17:23;;;;;;;2.83;2.63;;;;;;;;;;6330349;28;20286;-69
2023/07/12 07:20:28;;;;;;;2.97;2.75;;;;;;;;;;6331074;28;20242;-69
2023/07/12 07:23:34;;;;;;;4.47;2.90;;;;;;;;;;6330675;28;20531;-71
2023/07/12 07:26:38;;;;;;;3.08;2.70;;;;;;;;;;6330812;28;20415;-69
2023/07/12 07:29:42;;;;;;;3.17;2.88;;;;;;;;;;6330728;28;20243;-69
2023/07/12 07:32:47;;;;;;;4.28;3.10;;;;;;;;;;6330715;28;20239;-70
2023/07/12 07:35:51;;;;;;;3.92;3.50;;;;;;;;;;6330110;28;20289;-69
2023/07/12 07:38:56;;;;;;;2.80;2.60;;;;;;;;;;6331162;28;20238;-70
2023/07/12 07:42:01;;;;;;;2.60;2.60;;;;;;;;;;6331015;28;20459;-70
2023/07/12 07:45:06;;;;;;;3.63;2.95;;;;;;;;;;6331009;28;20251;-69
2023/07/12 07:48:10;;;;;;;9.00;3.00;;;;;;;;;;6317369;28;20230;-69
2023/07/12 07:51:15;;;;;;;2.85;2.65;;;;;;;;;;6314306;28;20419;-70
2023/07/12 07:54:20;;;;;;;4.00;3.40;;;;;;;;;;6314334;28;20235;-69
2023/07/12 07:57:24;;;;;;;5.00;2.95;;;;;;;;;;6313579;28;20274;-70
2023/07/12 08:00:29;;;;;;;7.15;3.30;;;;;;;;;;6313885;28;20239;-69
2023/07/12 08:03:34;;;;;;;3.33;3.03;;;;;;;;;;6312678;28;20271;-70
2023/07/12 08:06:39;;;;;;;4.65;2.75;;;;;;;;;;6313427;28;20238;-69
2023/07/12 08:09:45;;;;;;;3.38;3.03;;;;;;;;;;6313340;28;20254;-69
2023/07/12 08:12:49;;;;;;;3.58;3.25;;;;;;;;;;6311634;28;20262;-70
2023/07/12 08:15:56;;;;;;;3.88;2.95;;;;;;;;;;6313173;28;20401;-70
2023/07/12 08:19:00;;;;;;;3.35;3.08;;;;;;;;;;6313055;28;20602;-70
2023/07/12 08:22:20;;;;;;;4.72;3.50;;;;;;;;;;6313294;28;20243;-70
2023/07/12 08:25:25;;;;;;;7.53;2.72;;;;;;;;;;6312888;28;20235;-69
2023/07/12 08:28:30;;;;;;;2.90;2.65;;;;;;;;;;6312699;28;20238;-69
2023/07/12 08:31:34;;;;;;;3.20;2.88;;;;;;;;;;6312614;28;20423;-69
2023/07/12 08:34:38;;;;;;;3.20;2.65;;;;;;;;;;6312250;28;20250;-69
2023/07/12 08:37:43;;;;;;;2.97;2.80;;;;;;;;;;6312450;28;20263;-69
2023/07/12 08:40:50;;;;;;;3.15;2.58;;;;;;;;;;6312362;28;20238;-70
2023/07/12 08:43:54;;;;;;;3.28;2.67;;;;;;;;;;6312791;28;20235;-69
2023/07/12 08:46:59;;;;;;;3.92;2.80;;;;;;;;;;6312289;28;20242;-70
2023/07/12 08:50:04;;;;;;;5.45;2.70;;;;;;;;;;6312174;28;20238;-70
2023/07/12 08:53:10;;;;;;;8.38;2.60;;;;;;;;;;6312686;28;20243;-71
2023/07/12 08:56:18;;;;;;;6.78;3.08;;;;;;;;;;6312423;28;20262;-70
2023/07/12 08:59:23;;;;;;;4.50;3.03;;;;;;;;;;6311088;28;20267;-69
2023/07/12 09:02:27;;;;;;;2.70;2.40;;;;;;;;;;6311776;28;20231;-70
2023/07/12 09:05:32;;;;;;;10.65;3.13;;;;;;;;;;6311740;28;20239;-69
2023/07/12 09:08:38;;;;;;;3.33;2.50;;;;;;;;;;6312172;28;20426;-69
2023/07/12 09:11:43;;;;;;;2.60;2.50;;;;;;;;;;6311639;28;20243;-68
2023/07/12 09:14:48;;;;;;;7.00;3.25;;;;;;;;;;6311762;28;20239;-69
2023/07/12 09:17:52;;;;;;;3.00;2.80;;;;;;;;;;6311287;28;20428;-69
2023/07/12 09:20:58;;;;;;;7.30;2.75;;;;;;;;;;6311596;28;20235;-70
2023/07/12 09:24:03;;;;;;;3.95;3.03;;;;;;;;;;6311435;28;20251;-70
2023/07/12 09:27:18;;;;;;;3.00;2.88;;;;;;;;;;6311387;28;20251;-70
2023/07/12 09:30:27;;;;;;;4.10;2.75;;;;;;;;;;6311936;28;20412;-70
2023/07/12 09:33:32;;;;;;;7.57;3.15;;;;;;;;;;6311257;28;20231;-70
2023/07/12 09:36:37;;;;;;;5.28;3.35;;;;;;;;;;6310644;28;20306;-70
2023/07/12 09:39:41;;;;;;;4.30;3.17;;;;;;;;;;6311257;28;20243;-69
2023/07/12 09:42:49;;;;;;;3.08;2.70;;;;;;;;;;6311302;28;20250;-70
2023/07/12 09:45:59;;;;;;;10.35;3.40;;;;;;;;;;6311310;28;20231;-69
2023/07/12 09:49:18;;;;;;;12.73;3.83;;;;;;;;;;6310824;28;20328;-69
2023/07/12 09:52:24;;;;;;;7.82;3.05;;;;;;;;;;6311037;28;20231;-69
2023/07/12 09:55:31;;;;;;;5.53;2.65;;;;;;;;;;6310942;28;20243;-69
2023/07/12 09:58:40;;;;;;;9.82;3.22;;;;;;;;;;6310863;28;20262;-69
2023/07/12 10:01:50;;;;;;;3.10;2.78;;;;;;;;;;6310532;28;20247;-70
2023/07/12 10:04:58;;;;;;;12.20;3.42;;;;;;;;;;6310617;28;20236;-69
2023/07/12 10:08:04;;;;;;;7.25;3.08;;;;;;;;;;6310247;28;20262;-69
2023/07/12 10:11:12;;;;;;;2.97;2.75;;;;;;;;;;6310557;28;20239;-69
2023/07/12 10:14:19;;;;;;;4.25;2.60;;;;;;;;;;6310627;28;20251;-69
2023/07/12 10:17:29;;;;;;;8.10;2.70;;;;;;;;;;6310754;28;20255;-69
2023/07/12 10:20:33;;;;;;;5.03;2.90;;;;;;;;;;6310634;28;20238;-69
2023/07/12 10:23:43;;;;;;;4.78;2.75;;;;;;;;;;6310310;28;20244;-70
2023/07/12 10:26:47;;;;;;;5.25;2.90;;;;;;;;;;6310110;28;20251;-69
2023/07/12 10:29:56;;;;;;;8.40;2.88;;;;;;;;;;6310295;28;20235;-70
2023/07/12 10:33:03;;;;;;;3.03;2.80;;;;;;;;;;6310081;28;20239;-69
2023/07/12 10:36:11;;;;;;;3.40;2.55;;;;;;;;;;6309616;28;20462;-69
2023/07/12 10:39:15;;;;;;;5.22;3.08;;;;;;;;;;6310004;28;20270;-68
2023/07/12 10:42:32;;;;;;;2.97;2.80;;;;;;;;;;6310013;28;20239;-69
2023/07/12 10:45:38;;;;;;;3.00;2.72;;;;;;;;;;6309859;28;20263;-69
2023/07/12 10:48:46;;;;;;;11.13;2.65;;;;;;;;;;6310401;28;20243;-70
2023/07/12 10:52:06;;;;;;;4.38;2.72;;;;;;;;;;6309865;28;20247;-70
2023/07/12 10:55:21;;;;;;;5.32;2.50;;;;;;;;;;6309712;28;20239;-70
2023/07/12 10:58:27;;;;;;;4.25;3.00;;;;;;;;;;6309767;28;20258;-69
2023/07/12 11:01:47;;;;;;;4.57;2.50;;;;;;;;;;6310346;28;20243;-70
2023/07/12 11:04:52;;;;;;;2.80;2.60;;;;;;;;;;6310269;28;20256;-69
2023/07/12 11:07:56;;;;;;;3.92;2.83;;;;;;;;;;6309607;28;20242;-70
2023/07/12 11:11:01;;;;;;;3.10;2.90;;;;;;;;;;6310208;28;20247;-69
2023/07/12 11:14:24;;;;;;;3.17;2.97;;;;;;;;;;6310276;28;20226;-69
2023/07/12 11:17:29;;;;;;;5.40;2.90;;;;;;;;;;6309902;28;20259;-70
2023/07/12 11:20:35;;;;;;;3.53;3.05;;;;;;;;;;6309831;28;20243;-69
2023/07/12 11:23:49;;;;;;;4.45;2.40;;;;;;;;;;6313522;28;20326;-70
2023/07/12 11:26:55;;;;;;;3.05;2.90;;;;;;;;;;6314588;28;20267;-70
2023/07/12 11:30:08;;;;;;;5.82;2.58;;;;;;;;;;6314578;28;20239;-69
2023/07/12 11:33:27;;;;;;;2.90;2.53;;;;;;;;;;6314508;28;20255;-70
2023/07/12 11:36:33;;;;;;;5.88;2.70;;;;;;;;;;6313902;28;20294;-69
2023/07/12 11:39:38;;;;;;;5.60;2.85;;;;;;;;;;6314063;28;20259;-70
2023/07/12 11:42:42;;;;;;;2.97;2.60;;;;;;;;;;6314222;28;20242;-69
2023/07/12 11:45:46;;;;;;;4.00;2.60;;;;;;;;;;6314446;28;20239;-69
2023/07/12 11:48:52;;;;;;;4.25;2.42;;;;;;;;;;6315129;28;20239;-69
2023/07/12 11:51:58;;;;;;;2.85;2.40;;;;;;;;;;6313987;28;20231;-69
2023/07/12 11:55:05;;;;;;;8.88;2.60;;;;;;;;;;6313802;28;20251;-70
2023/07/12 11:58:15;;;;;;;2.70;2.47;;;;;;;;;;6314255;28;20263;-69
2023/07/12 12:01:21;;;;;;;2.97;2.53;;;;;;;;;;6313254;28;20552;-70
2023/07/12 12:04:28;;;;;;;2.75;2.53;;;;;;;;;;6313684;28;20235;-70
2023/07/12 12:07:35;;;;;;;2.30;2.20;;;;;;;;;;6314569;28;20255;-70
2023/07/12 12:10:41;;;;;;;3.90;2.38;;;;;;;;;;6313108;28;20531;-70
2023/07/12 12:13:48;;;;;;;5.50;3.03;;;;;;;;;;6313519;28;20508;-70
2023/07/12 12:16:53;;;;;;;2.78;2.58;;;;;;;;;;6313276;28;20243;-69
2023/07/12 12:20:13;;;;;;;3.45;2.70;;;;;;;;;;6313172;28;20262;-70
2023/07/12 12:23:21;;;;;;;2.80;2.30;;;;;;;;;;6313396;28;20267;-69
2023/07/12 12:26:27;;;;;;;5.07;2.47;;;;;;;;;;6312937;28;20236;-69
2023/07/12 12:29:32;;;;;;;2.90;2.70;;;;;;;;;;6312883;28;20243;-69
2023/07/12 12:32:39;;;;;;;5.85;2.80;;;;;;;;;;6312566;28;20243;-69
2023/07/12 12:35:52;;;;;;;9.68;2.50;;;;;;;;;;6312737;28;20295;-70
2023/07/12 12:38:58;;;;;;;2.30;2.10;;;;;;;;;;6312618;28;20267;-69
2023/07/12 12:42:06;;;;;;;4.35;2.72;;;;;;;;;;6312598;28;20231;-70
2023/07/12 12:45:11;;;;;;;2.70;2.50;;;;;;;;;;6312710;28;20243;-70
2023/07/12 12:48:15;;;;;;;2.75;2.65;;;;;;;;;;6312555;28;20506;-70
2023/07/12 12:51:28;;;;;;;2.78;2.67;;;;;;;;;;6312069;28;20532;-71
2023/07/12 12:54:35;;;;;;;5.63;2.40;;;;;;;;;;6312564;28;20512;-70
2023/07/12 12:57:43;;;;;;;2.45;2.45;;;;;;;;;;6311890;28;20520;-69
2023/07/12 13:00:51;;;;;;;2.80;2.60;;;;;;;;;;6311793;28;20274;-69
2023/07/12 13:03:58;;;;;;;2.75;2.50;;;;;;;;;;6311368;28;20270;-69
2023/07/12 13:07:11;;;;;;;5.60;2.60;;;;;;;;;;6311968;28;20455;-68
2023/07/12 13:10:26;;;;;;;3.45;2.50;;;;;;;;;;6311867;28;20250;-69
2023/07/12 13:13:34;;;;;;;3.90;2.42;;;;;;;;;;6311610;28;20250;-68
2023/07/12 13:16:41;;;;;;;5.57;2.53;;;;;;;;;;6311380;28;20262;-70
2023/07/12 13:19:48;;;;;;;2.42;2.20;;;;;;;;;;6311630;28;20349;-69
2023/07/12 13:22:54;;;;;;;4.32;2.67;;;;;;;;;;6311570;28;20508;-69
2023/07/12 13:25:59;;;;;;;2.70;2.60;;;;;;;;;;6311380;28;20246;-69
2023/07/12 13:29:03;;;;;;;2.78;2.55;;;;;;;;;;6311232;28;20246;-70
2023/07/12 13:32:11;;;;;;;3.42;2.30;;;;;;;;;;6310398;28;20271;-69
2023/07/12 13:35:17;;;;;;;3.03;2.42;;;;;;;;;;6310722;28;20290;-69
2023/07/12 13:38:25;;;;;;;3.20;2.90;;;;;;;;;;6310005;28;20274;-70
2023/07/12 13:41:32;;;;;;;2.53;2.33;;;;;;;;;;6311120;28;20243;-69
2023/07/12 13:44:40;;;;;;;2.70;2.53;;;;;;;;;;6310679;28;20266;-71
2023/07/12 13:48:06;;;;;;;2.35;2.35;;;;;;;;;;6310985;28;20239;-70
2023/07/12 13:51:17;;;;;;;4.75;2.97;;;;;;;;;;6311091;28;20259;-70
2023/07/12 13:54:23;;;;;;;7.15;2.20;;;;;;;;;;6309966;28;20275;-70
2023/07/12 13:57:29;;;;;;;2.50;2.50;;;;;;;;;;6310610;28;20243;-70
2023/07/12 14:00:33;;;;;;;2.50;2.40;;;;;;;;;;6310602;28;20263;-70
2023/07/12 14:03:58;;;;;;;5.22;2.28;;;;;;;;;;6310291;28;20544;-69
2023/07/12 14:07:03;;;;;;;2.40;2.30;;;;;;;;;;6310823;28;20243;-70
2023/07/12 14:10:28;;;;;;;2.70;2.60;;;;;;;;;;6310950;28;20243;-70
2023/07/12 14:13:34;;;;;;;2.55;2.45;;;;;;;;;;6310114;28;20238;-70
2023/07/12 14:16:38;;;;;;;3.22;2.83;;;;;;;;;;6310291;28;20239;-70
2023/07/12 14:19:43;;;;;;;4.25;2.30;;;;;;;;;;6310453;28;20262;-69
2023/07/12 14:22:47;;;;;;;3.97;2.22;;;;;;;;;;6311298;28;20243;-70
2023/07/12 14:25:53;;;;;;;3.97;2.45;;;;;;;;;;6311069;28;20239;-70
2023/07/12 14:28:57;;;;;;;5.65;2.95;;;;;;;;;;6310214;28;20243;-69
2023/07/12 14:32:11;;;;;;;2.67;2.67;;;;;;;;;;6310007;28;20240;-70
2023/07/12 14:35:17;;;;;;;2.78;2.58;;;;;;;;;;6310279;28;20282;-69
2023/07/12 14:38:21;;;;;;;2.85;2.65;;;;;;;;;;6310051;28;20242;-70
2023/07/12 14:41:29;;;;;;;2.38;2.20;;;;;;;;;;6309989;28;20262;-70
2023/07/12 14:44:33;;;;;;;3.55;2.33;;;;;;;;;;6309939;28;20248;-70
2023/07/12 14:47:37;;;;;;;4.65;3.10;;;;;;;;;;6310252;28;20230;-70
2023/07/12 14:50:42;;;;;;;3.08;2.80;;;;;;;;;;6309799;28;20243;-69
2023/07/12 14:53:47;;;;;;;2.80;2.60;;;;;;;;;;6309353;28;20527;-68
2023/07/12 14:56:52;;;;;;;2.75;2.60;;;;;;;;;;6311556;28;20251;-70
2023/07/12 15:00:18;;;;;;;2.63;2.50;;;;;;;;;;6315501;28;20263;-70
2023/07/12 15:03:25;;;;;;;2.35;2.28;;;;;;;;;;6315057;28;20235;-69
2023/07/12 15:06:29;;;;;;;3.25;2.50;;;;;;;;;;6314135;28;20262;-70
2023/07/12 15:09:33;;;;;;;2.80;2.60;;;;;;;;;;6314862;28;20243;-70
2023/07/12 15:12:40;;;;;;;2.65;2.50;;;;;;;;;;6314849;28;20261;-70
2023/07/12 15:15:44;;;;;;;4.85;2.40;;;;;;;;;;6315217;28;20259;-69
2023/07/12 15:18:48;;;;;;;3.05;2.50;;;;;;;;;;6314868;28;20239;-70
2023/07/12 15:21:53;;;;;;;4.35;2.53;;;;;;;;;;6314560;28;20271;-70
2023/07/12 15:24:57;;;;;;;2.72;2.53;;;;;;;;;;6314939;28;20238;-71
2023/07/12 15:28:03;;;;;;;2.85;2.75;;;;;;;;;;6314589;28;20248;-69
2023/07/12 15:31:12;;;;;;;3.50;3.17;;;;;;;;;;6314672;28;20235;-70
2023/07/12 15:34:16;;;;;;;3.15;2.90;;;;;;;;;;6314492;28;20247;-70
2023/07/12 15:37:20;;;;;;;3.10;2.90;;;;;;;;;;6313988;28;20554;-71
2023/07/12 15:40:46;;;;;;;2.55;2.55;;;;;;;;;;6314306;28;20562;-69
2023/07/12 15:43:54;;;;;;;2.95;2.85;;;;;;;;;;6313890;28;20254;-71
2023/07/12 15:46:59;;;;;;;5.07;2.88;;;;;;;;;;6314261;28;20239;-72
2023/07/12 15:50:03;;;;;;;2.90;2.70;;;;;;;;;;6314031;28;20242;-69
2023/07/12 15:53:10;;;;;;;4.65;3.30;;;;;;;;;;6314228;28;20239;-69
2023/07/12 15:56:16;;;;;;;3.78;3.38;;;;;;;;;;6313789;28;20330;-69
2023/07/12 15:59:28;;;;;;;3.50;2.97;;;;;;;;;;6313464;28;20238;-70
2023/07/12 16:02:32;;;;;;;5.07;3.53;;;;;;;;;;6313597;28;20235;-70
2023/07/12 16:05:37;;;;;;;3.22;3.03;;;;;;;;;;6313199;28;20254;-69
2023/07/12 16:08:41;;;;;;;3.28;3.03;;;;;;;;;;6312699;28;20246;-69
2023/07/12 16:11:46;;;;;;;3.85;2.70;;;;;;;;;;6313087;28;20244;-70
2023/07/12 16:14:53;;;;;;;8.07;3.65;;;;;;;;;;6313224;28;20239;-71
2023/07/12 16:17:57;;;;;;;2.78;2.70;;;;;;;;;;6312903;28;20243;-70
2023/07/12 16:21:02;;;;;;;7.53;4.13;;;;;;;;;;6312711;28;20638;-70
2023/07/12 16:24:07;;;;;;;2.85;2.75;;;;;;;;;;6312654;28;20418;-69
2023/07/12 16:27:13;;;;;;;3.78;3.42;;;;;;;;;;6312617;28;20239;-69
2023/07/12 16:30:20;;;;;;;3.60;3.40;;;;;;;;;;6312346;28;20243;-70
2023/07/12 16:33:25;;;;;;;8.32;4.60;;;;;;;;;;6312517;28;20231;-70
2023/07/12 16:36:31;;;;;;;4.45;4.10;;;;;;;;;;6312049;28;20294;-70
2023/07/12 16:39:35;;;;;;;4.88;3.55;;;;;;;;;;6312796;28;20234;-70
2023/07/12 16:42:40;;;;;;;4.47;4.20;;;;;;;;;;6312427;28;20258;-70
2023/07/12 16:45:49;;;;;;;3.78;3.13;;;;;;;;;;6312605;28;20239;-70
2023/07/12 16:48:54;;;;;;;5.43;3.40;;;;;;;;;;6312850;28;20247;-70
2023/07/12 16:52:00;;;;;;;5.43;4.93;;;;;;;;;;6312261;28;20496;-70
2023/07/12 16:55:06;;;;;;;2.95;2.85;;;;;;;;;;6312083;28;20243;-71
2023/07/12 16:58:17;;;;;;;3.83;3.53;;;;;;;;;;6312710;28;20368;-69
2023/07/12 17:01:25;;;;;;;3.20;2.80;;;;;;;;;;6311753;28;20270;-70
2023/07/12 17:04:29;;;;;;;3.13;2.95;;;;;;;;;;6313791;28;20239;-70
2023/07/12 17:07:35;;;;;;;4.50;3.08;;;;;;;;;;6312450;28;20251;-71
2023/07/12 17:10:40;;;;;;;6.20;2.80;;;;;;;;;;6312138;28;20243;-70
2023/07/12 17:13:44;;;;;;;4.35;2.83;;;;;;;;;;6312537;28;20235;-69
2023/07/12 17:16:50;;;;;;;3.50;3.40;;;;;;;;;;6312079;28;20239;-69
2023/07/12 17:19:55;;;;;;;2.78;2.60;;;;;;;;;;6311065;28;20246;-69
2023/07/12 17:23:01;;;;;;;3.35;3.08;;;;;;;;;;6311829;28;20262;-68
2023/07/12 17:26:05;;;;;;;2.95;2.83;;;;;;;;;;6311728;28;20240;-70
2023/07/12 17:29:11;;;;;;;3.70;2.88;;;;;;;;;;6311999;28;20235;-70
2023/07/12 17:32:18;;;;;;;2.92;2.80;;;;;;;;;;6311433;28;20243;-69
2023/07/12 17:35:23;;;;;;;2.75;2.67;;;;;;;;;;6311629;28;20291;-70
2023/07/12 17:38:28;;;;;;;2.78;2.67;;;;;;;;;;6311413;28;20235;-70
2023/07/12 17:41:32;;;;;;;2.88;2.72;;;;;;;;;;6311739;28;20566;-70
2023/07/12 17:44:37;;;;;;;3.30;3.05;;;;;;;;;;6311542;28;20262;-70
2023/07/12 17:47:43;;;;;;;3.33;2.72;;;;;;;;;;6310694;28;20275;-71
2023/07/12 17:50:57;;;;;;;3.28;2.70;;;;;;;;;;6311414;28;20250;-70
2023/07/12 17:54:01;;;;;;;2.58;2.50;;;;;;;;;;6311059;28;20235;-69
2023/07/12 17:57:06;;;;;;;2.75;2.63;;;;;;;;;;6311427;28;20235;-70
2023/07/12 18:00:11;;;;;;;5.05;2.92;;;;;;;;;;6310814;28;20404;-70
2023/07/12 18:03:17;;;;;;;3.17;2.47;;;;;;;;;;6319644;28;20283;-70
2023/07/12 18:06:24;;;;;;;5.32;2.50;;;;;;;;;;6311266;28;20424;-70
2023/07/12 18:09:28;;;;;;;3.17;2.95;;;;;;;;;;6311187;28;20326;-69
2023/07/12 18:12:33;;;;;;;2.75;2.55;;;;;;;;;;6310925;28;20251;-71
2023/07/12 18:15:37;;;;;;;2.50;2.30;;;;;;;;;;6310739;28;20242;-69
2023/07/12 18:18:43;;;;;;;4.60;2.65;;;;;;;;;;6311147;28;20448;-70
2023/07/12 18:21:48;;;;;;;2.42;2.40;;;;;;;;;;6310724;28;20616;-70
2023/07/12 18:24:53;;;;;;;2.40;2.30;;;;;;;;;;6311252;28;20227;-70
2023/07/12 18:27:57;;;;;;;2.47;2.38;;;;;;;;;;6311039;28;20235;-70
2023/07/12 18:31:02;;;;;;;3.60;2.50;;;;;;;;;;6310024;28;20243;-70
2023/07/12 18:34:12;;;;;;;2.60;2.40;;;;;;;;;;6310652;28;20273;-71
2023/07/12 18:37:17;;;;;;;2.47;2.38;;;;;;;;;;6310717;28;20286;-70
2023/07/12 18:40:22;;;;;;;2.30;2.30;;;;;;;;;;6310561;28;20235;-69